Terminal Aerodrome Forecast
Issued by NWS

Home | Current Version | Previous Version | Graphics & Text | Print | Product List | Glossary On
Versions: 1 2 3 4 5 6 7 8 9 10 11 12 13 14 15 16
000
FTUS43 KLSX 111730
TAFSUS
TAF
KSUS 111730Z 1118/1218 25013G23KT P6SM OVC200
     FM112000 28016G26KT P6SM FEW250
     FM120000 30016G28KT P6SM BKN040
     FM120300 31015G27KT P6SM OVC025
     FM120800 33016G24KT P6SM SCT030
     FM121000 32014G24KT P6SM FEW130=

USA.gov is the U.S. government's official web portal to all federal, state and local government web resources and services.